Time;durP1;ratioP1;P1;durP2;ratioP2;P2;SDS_P1;SDS_P2;PMS_P1;PMS_P2;Temp;Humidity;BMP_temperature;BMP_pressure;BME280_temperature;BME280_humidity;BME280_pressure;Samples;Min_cycle;Max_cycle;Signal;HPM_P1;HPM_P2
2021/06/09 00:02:08;;;;;;;2.20;1.65;;;;;;;17.46;58.33;101411.09;3550434;39;20090;-46
2021/06/09 00:04:35;;;;;;;2.45;1.55;;;;;;;16.98;60.11;101403.72;3552544;39;20054;-48
2021/06/09 00:07:02;;;;;;;1.70;1.60;;;;;;;16.92;60.70;101414.00;3552725;39;20522;-49
2021/06/09 00:09:29;;;;;;;2.92;2.03;;;;;;;16.81;60.86;101413.84;3550150;39;20106;-46
2021/06/09 00:11:56;;;;;;;2.30;1.42;;;;;;;16.97;59.77;101415.78;3554572;39;20047;-46
2021/06/09 00:14:23;;;;;;;3.28;1.70;;;;;;;16.93;60.14;101418.31;3548802;39;20051;-48
2021/06/09 00:16:51;;;;;;;1.92;1.60;;;;;;;16.79;60.64;101418.16;3556567;39;20087;-47
2021/06/09 00:19:18;;;;;;;1.55;1.45;;;;;;;16.86;60.30;101417.38;3549297;39;20506;-46
2021/06/09 00:21:48;;;;;;;3.78;1.70;;;;;;;16.66;61.55;101411.06;3555937;39;20102;-50
2021/06/09 00:24:16;;;;;;;4.80;2.33;;;;;;;17.09;59.38;101412.44;3549151;39;20046;-50
2021/06/09 00:26:43;;;;;;;2.22;1.45;;;;;;;16.71;60.92;101412.00;3555653;39;20113;-45
2021/06/09 00:29:11;;;;;;;1.88;1.58;;;;;;;16.65;61.02;101407.63;3550661;39;20070;-45
2021/06/09 00:31:39;;;;;;;1.95;1.70;;;;;;;16.65;61.27;101417.09;3553845;39;20055;-48
2021/06/09 00:34:06;;;;;;;4.70;1.85;;;;;;;16.79;60.38;101415.56;3551067;39;20043;-47
2021/06/09 00:36:33;;;;;;;1.65;1.48;;;;;;;16.87;60.41;101410.47;3551838;39;20087;-47
2021/06/09 00:39:00;;;;;;;3.47;1.85;;;;;;;16.52;61.28;101418.66;3553156;39;20052;-47
2021/06/09 00:41:27;;;;;;;4.28;1.90;;;;;;;16.42;61.66;101417.66;3548743;39;20043;-47
2021/06/09 00:43:56;;;;;;;2.75;1.90;;;;;;;16.50;61.40;101410.88;3555535;39;20056;-45
2021/06/09 00:46:31;;;;;;;4.80;1.63;;;;;;;16.49;62.19;101411.72;3549087;39;20544;-46
2021/06/09 00:48:58;;;;;;;1.80;1.70;;;;;;;16.29;61.58;101408.88;3549400;39;20063;-47
2021/06/09 00:51:25;;;;;;;2.35;1.80;;;;;;;16.32;61.87;101413.22;3548880;39;20444;-46
2021/06/09 00:53:58;;;;;;;1.80;1.70;;;;;;;16.08;62.79;101412.84;3548906;39;20336;-49
2021/06/09 00:56:26;;;;;;;2.92;1.83;;;;;;;15.98;63.31;101412.72;3548380;39;20075;-46
2021/06/09 00:58:54;;;;;;;3.42;1.90;;;;;;;15.95;63.70;101419.56;3549203;39;20088;-45
2021/06/09 01:01:23;;;;;;;4.25;1.60;;;;;;;15.85;64.05;101421.13;3548995;39;20055;-48
2021/06/09 01:03:51;;;;;;;2.38;1.80;;;;;;;15.90;63.41;101414.34;3556311;39;20407;-47
2021/06/09 01:06:19;;;;;;;3.30;1.80;;;;;;;15.89;64.24;101419.47;3547974;40;20098;-46
2021/06/09 01:08:47;;;;;;;1.85;1.65;;;;;;;15.91;64.24;101410.91;3555908;39;20878;-47
2021/06/09 01:11:24;;;;;;;2.00;1.70;;;;;;;15.87;64.46;101413.41;3549307;39;20106;-50
2021/06/09 01:13:52;;;;;;;2.50;1.50;;;;;;;16.17;63.30;101413.84;3556104;39;20074;-46
2021/06/09 01:16:20;;;;;;;3.10;1.63;;;;;;;15.83;64.18;101409.91;3548890;39;20098;-45
2021/06/09 01:18:47;;;;;;;1.95;1.70;;;;;;;15.70;64.86;101408.84;3556152;39;20056;-46
2021/06/09 01:21:15;;;;;;;1.70;1.60;;;;;;;15.79;64.37;101402.94;3549023;39;20050;-51
2021/06/09 01:23:42;;;;;;;2.40;1.65;;;;;;;15.71;65.14;101400.25;3554759;39;20066;-47
2021/06/09 01:26:10;;;;;;;2.88;1.80;;;;;;;15.81;64.35;101410.72;3548356;39;20061;-45
2021/06/09 01:28:40;;;;;;;2.25;1.70;;;;;;;15.75;65.18;101409.78;3554270;39;20051;-45
2021/06/09 01:31:08;;;;;;;4.93;2.22;;;;;;;15.48;66.45;101415.34;3550283;39;20046;-46
2021/06/09 01:33:35;;;;;;;4.80;2.72;;;;;;;15.40;66.68;101416.06;3552146;39;20459;-45
2021/06/09 01:36:02;;;;;;;4.05;2.20;;;;;;;15.34;68.06;101401.31;3551866;39;20306;-46
2021/06/09 01:38:30;;;;;;;3.17;1.70;;;;;;;15.26;67.85;101408.06;3549598;39;20478;-46
2021/06/09 01:40:57;;;;;;;2.15;1.98;;;;;;;15.20;68.39;101408.78;3554401;39;20059;-44
2021/06/09 01:43:24;;;;;;;2.03;1.85;;;;;;;15.18;68.19;101404.47;3548428;39;20480;-46
2021/06/09 01:45:53;;;;;;;2.15;1.60;;;;;;;15.09;68.67;101406.88;3555871;39;20092;-50
2021/06/09 01:48:20;;;;;;;4.38;2.15;;;;;;;15.16;69.32;101406.13;3548590;39;20136;-46
2021/06/09 01:50:47;;;;;;;4.10;2.10;;;;;;;15.14;69.03;101407.81;3555431;39;20060;-50
2021/06/09 01:53:15;;;;;;;2.45;1.95;;;;;;;15.10;70.04;101398.28;3549054;39;20330;-45
2021/06/09 01:55:42;;;;;;;2.60;2.38;;;;;;;14.96;70.30;101403.19;3554761;39;20069;-49
2021/06/09 01:58:11;;;;;;;2.20;2.03;;;;;;;14.88;71.11;101397.00;3552295;40;20058;-46
2021/06/09 02:00:45;;;;;;;2.30;2.10;;;;;;;14.88;70.50;101391.84;3553453;39;20162;-45
2021/06/09 02:03:13;;;;;;;4.15;1.92;;;;;;;14.89;70.56;101389.31;3550546;39;20411;-49
2021/06/09 02:05:42;;;;;;;3.40;2.17;;;;;;;14.80;71.53;101402.03;3553961;39;20126;-45
2021/06/09 02:08:12;;;;;;;1.92;1.83;;;;;;;14.85;71.40;101390.09;3548471;39;20363;-45
2021/06/09 02:10:41;;;;;;;4.13;1.73;;;;;;;14.74;73.18;101400.22;3553460;39;20061;-46
2021/06/09 02:13:11;;;;;;;2.03;1.83;;;;;;;14.93;71.76;101391.13;3549668;39;20082;-45
2021/06/09 02:15:39;;;;;;;2.47;2.03;;;;;;;15.01;71.53;101393.81;3553056;39;20090;-45
2021/06/09 02:18:16;;;;;;;2.40;2.20;;;;;;;14.54;74.17;101398.91;3550083;39;20082;-48
2021/06/09 02:20:55;;;;;;;6.80;2.38;;;;;;;14.36;74.90;101394.22;3555060;39;20083;-47
2021/06/09 02:23:34;;;;;;;7.25;3.65;;;;;;;14.15;76.70;101397.19;3549783;39;20121;-45
2021/06/09 02:26:01;;;;;;;8.25;2.33;;;;;;;13.97;77.26;101389.94;3549802;39;20063;-45
2021/06/09 02:28:31;;;;;;;5.88;2.58;;;;;;;13.89;78.13;101391.44;3548884;39;20059;-46
2021/06/09 02:30:59;;;;;;;5.03;3.25;;;;;;;13.99;78.38;101393.38;3554101;39;20136;-46
2021/06/09 02:33:27;;;;;;;6.45;3.10;;;;;;;13.79;78.89;101388.63;3548569;39;20106;-47
2021/06/09 02:35:55;;;;;;;2.63;2.35;;;;;;;14.01;78.09;101388.28;3549522;39;20095;-47
2021/06/09 02:38:24;;;;;;;6.18;2.47;;;;;;;13.79;79.08;101393.78;3548247;39;20625;-45
2021/06/09 02:40:55;;;;;;;3.38;2.60;;;;;;;13.78;79.22;101392.91;3548339;39;20068;-46
2021/06/09 02:43:29;;;;;;;2.95;2.70;;;;;;;13.87;78.93;101398.28;3548155;39;20408;-45
2021/06/09 02:46:18;;;;;;;6.90;3.08;;;;;;;13.60;80.26;101393.34;3548780;39;20099;-45
2021/06/09 02:48:50;;;;;;;3.20;2.90;;;;;;;13.45;81.54;101396.41;3554408;39;20156;-47
2021/06/09 02:51:20;;;;;;;5.78;2.90;;;;;;;13.37;82.41;101394.47;3548614;39;20614;-46
2021/06/09 02:53:59;;;;;;;4.13;3.08;;;;;;;13.29;83.15;101391.69;3555285;39;20797;-46
2021/06/09 02:56:35;;;;;;;7.25;3.50;;;;;;;13.26;83.62;101399.31;3548203;39;20098;-45
2021/06/09 02:59:28;;;;;;;4.75;2.97;;;;;;;13.53;82.96;101398.28;3551203;39;20442;-48
2021/06/09 03:02:10;;;;;;;5.57;3.40;;;;;;;13.31;83.66;101397.75;3550257;39;20081;-48
2021/06/09 03:04:51;;;;;;;4.18;3.40;;;;;;;13.23;84.08;101394.97;3554445;39;20159;-46
2021/06/09 03:07:27;;;;;;;4.85;2.70;;;;;;;13.19;84.45;101399.97;3551182;39;20113;-48
2021/06/09 03:10:22;;;;;;;6.88;3.03;;;;;;;13.22;83.67;101389.78;3551677;39;20042;-45
2021/06/09 03:13:02;;;;;;;3.20;2.65;;;;;;;13.14;84.08;101393.81;3555699;39;20076;-47
2021/06/09 03:15:39;;;;;;;3.47;3.17;;;;;;;13.53;82.54;101399.13;3549359;39;20087;-45
2021/06/09 03:18:20;;;;;;;3.97;2.47;;;;;;;13.90;80.03;101394.88;3550968;39;20058;-46
2021/06/09 03:21:11;;;;;;;3.13;2.60;;;;;;;13.44;81.60;101392.06;3556395;39;20102;-47
2021/06/09 03:23:50;;;;;;;5.22;3.10;;;;;;;13.23;83.09;101389.81;3554673;39;20086;-45
2021/06/09 03:26:37;;;;;;;3.58;3.28;;;;;;;13.13;84.05;101392.09;3551542;39;20078;-50
2021/06/09 03:29:16;;;;;;;6.07;3.17;;;;;;;13.15;83.78;101391.28;3549961;39;20088;-46
2021/06/09 03:31:51;;;;;;;4.20;3.40;;;;;;;13.18;83.96;101390.50;3556279;39;20132;-46
2021/06/09 03:34:21;;;;;;;3.88;3.10;;;;;;;13.18;84.11;101380.22;3553292;39;20053;-45
2021/06/09 03:36:50;;;;;;;3.22;2.80;;;;;;;13.09;84.34;101380.84;3556877;39;20073;-45
2021/06/09 03:39:21;;;;;;;3.33;3.03;;;;;;;13.14;84.18;101386.09;3549905;39;20454;-47
2021/06/09 03:41:57;;;;;;;5.35;3.22;;;;;;;13.24;84.24;101381.28;3556916;39;20060;-45
2021/06/09 03:44:31;;;;;;;7.45;3.40;;;;;;;13.31;83.71;101382.31;3549488;39;20436;-46
2021/06/09 03:46:58;;;;;;;2.55;2.45;;;;;;;13.35;83.71;101386.69;3550899;39;20076;-49
2021/06/09 03:49:28;;;;;;;5.28;3.20;;;;;;;13.38;83.98;101384.19;3542262;39;20663;-45
2021/06/09 03:51:56;;;;;;;3.33;3.03;;;;;;;13.47;83.93;101379.28;3551249;39;20084;-45
2021/06/09 03:54:24;;;;;;;6.63;2.80;;;;;;;13.71;82.69;101383.28;3549683;39;20149;-48
2021/06/09 03:56:54;;;;;;;4.57;2.63;;;;;;;13.63;83.41;101388.22;3557242;39;20348;-45
2021/06/09 03:59:22;;;;;;;5.65;3.58;;;;;;;13.58;83.09;101387.25;3549657;39;20047;-45
2021/06/09 04:01:50;;;;;;;4.03;3.20;;;;;;;13.63;82.95;101382.22;3556779;39;20115;-47
2021/06/09 04:04:21;;;;;;;3.10;2.85;;;;;;;13.71;82.48;101383.28;3549721;39;20079;-44
2021/06/09 04:06:54;;;;;;;6.13;3.30;;;;;;;13.73;82.54;101385.06;3556730;39;20056;-47
2021/06/09 04:09:23;;;;;;;7.43;2.83;;;;;;;13.82;81.85;101389.56;3550529;39;20570;-47
2021/06/09 04:11:54;;;;;;;5.80;3.10;;;;;;;13.88;81.55;101394.00;3553096;39;20091;-44
2021/06/09 04:14:24;;;;;;;3.55;3.15;;;;;;;13.86;81.50;101391.34;3549489;39;20065;-44
2021/06/09 04:16:54;;;;;;;3.60;3.15;;;;;;;13.94;81.66;101399.28;3557326;39;20374;-45
2021/06/09 04:19:23;;;;;;;5.18;3.20;;;;;;;13.98;81.54;101394.22;3549575;39;20065;-47
2021/06/09 04:21:52;;;;;;;3.53;3.15;;;;;;;14.04;81.87;101393.50;3555010;39;20056;-46
2021/06/09 04:24:19;;;;;;;4.28;3.05;;;;;;;14.14;81.36;101392.88;3550682;39;20075;-47
2021/06/09 04:26:48;;;;;;;4.47;3.10;;;;;;;14.26;80.85;101395.72;3556986;39;20099;-46
2021/06/09 04:29:16;;;;;;;4.10;2.80;;;;;;;14.35;80.59;101394.19;3549676;39;20113;-45
2021/06/09 04:31:43;;;;;;;3.00;2.80;;;;;;;14.55;79.42;101392.06;3555584;39;20693;-46
2021/06/09 04:34:10;;;;;;;5.03;2.72;;;;;;;14.63;79.43;101396.53;3549940;39;20408;-47
2021/06/09 04:36:37;;;;;;;4.80;3.10;;;;;;;14.98;78.16;101397.22;3556793;39;20368;-45
2021/06/09 04:39:04;;;;;;;6.07;3.10;;;;;;;15.06;77.46;101394.78;3551543;39;20070;-47
2021/06/09 04:41:34;;;;;;;4.10;3.20;;;;;;;15.16;77.05;101404.44;3545194;39;20094;-46
2021/06/09 04:44:02;;;;;;;3.20;2.85;;;;;;;15.28;76.87;101394.34;3554669;39;20381;-45
2021/06/09 04:46:29;;;;;;;3.33;3.03;;;;;;;15.29;76.91;101393.47;3545793;39;20102;-44
2021/06/09 04:48:59;;;;;;;6.30;3.38;;;;;;;15.47;75.53;101394.66;3551747;39;20059;-44
2021/06/09 04:51:31;;;;;;;3.22;2.92;;;;;;;15.64;73.96;101401.00;3547957;39;20091;-42
2021/06/09 04:54:01;;;;;;;5.68;2.88;;;;;;;15.82;74.10;101391.81;3549890;39;20080;-43
2021/06/09 04:56:32;;;;;;;4.95;3.40;;;;;;;15.96;72.82;101400.63;3549349;39;20820;-42
2021/06/09 04:59:04;;;;;;;3.55;3.25;;;;;;;16.02;72.77;101404.16;3556334;39;20146;-42
2021/06/09 05:01:31;;;;;;;5.35;2.85;;;;;;;16.02;73.00;101401.59;3560073;39;20074;-43
2021/06/09 05:03:59;;;;;;;4.60;2.92;;;;;;;16.09;72.86;101402.56;3556472;39;20060;-44
2021/06/09 05:06:26;;;;;;;3.03;2.80;;;;;;;16.17;72.64;101402.66;3552411;39;20047;-42
2021/06/09 05:08:54;;;;;;;3.15;2.85;;;;;;;16.40;72.69;101398.66;3548654;39;20058;-44
2021/06/09 05:11:38;;;;;;;4.18;2.65;;;;;;;16.59;72.09;101401.47;3548221;39;20074;-42
2021/06/09 05:14:10;;;;;;;3.58;2.70;;;;;;;16.96;69.33;101398.53;3549559;39;20046;-42
2021/06/09 05:16:39;;;;;;;2.97;2.47;;;;;;;16.86;70.28;101404.44;3552607;39;20053;-42
2021/06/09 05:19:07;;;;;;;3.30;2.92;;;;;;;17.17;69.59;101397.88;3550646;39;20050;-42
2021/06/09 05:21:38;;;;;;;3.13;2.78;;;;;;;17.31;66.72;101396.28;3552045;39;20086;-42
2021/06/09 05:24:06;;;;;;;5.25;2.83;;;;;;;17.53;66.39;101399.06;3551314;39;20049;-42
2021/06/09 05:26:34;;;;;;;5.65;2.45;;;;;;;17.74;64.72;101401.84;3551385;39;20083;-41
2021/06/09 05:29:07;;;;;;;3.45;2.35;;;;;;;17.95;64.28;101398.56;3553039;39;20095;-41
2021/06/09 05:31:38;;;;;;;3.90;2.75;;;;;;;17.80;64.70;101401.91;3552891;39;20087;-42
2021/06/09 05:34:07;;;;;;;4.68;2.60;;;;;;;17.85;65.04;101403.69;3552605;39;20251;-42
2021/06/09 05:36:35;;;;;;;4.03;2.58;;;;;;;18.13;62.91;101404.72;3548153;39;20057;-42
2021/06/09 05:39:02;;;;;;;3.05;2.35;;;;;;;17.94;62.48;101401.16;3545517;40;20054;-43
2021/06/09 05:41:30;;;;;;;4.80;2.50;;;;;;;18.09;62.75;101403.81;3547874;39;20045;-42
2021/06/09 05:43:57;;;;;;;4.57;2.50;;;;;;;18.10;63.06;101410.75;3546579;39;20102;-42
2021/06/09 05:46:28;;;;;;;3.55;2.30;;;;;;;18.45;63.27;101405.75;3543896;40;20072;-42
2021/06/09 05:48:55;;;;;;;2.63;2.42;;;;;;;18.58;63.52;101407.56;3542138;40;20054;-42
2021/06/09 05:51:23;;;;;;;3.13;2.30;;;;;;;18.68;62.64;101413.66;3542255;40;20082;-42
2021/06/09 05:53:55;;;;;;;2.90;2.55;;;;;;;18.92;62.20;101415.47;3547206;40;20117;-42
2021/06/09 05:56:23;;;;;;;3.67;2.10;;;;;;;18.53;60.21;101408.38;3552059;39;20079;-42
2021/06/09 05:58:50;;;;;;;2.63;1.80;;;;;;;18.91;56.59;101407.69;3556608;39;20091;-43
2021/06/09 06:01:17;;;;;;;5.00;2.10;;;;;;;19.05;57.49;101413.78;3550645;39;20090;-42
2021/06/09 06:03:45;;;;;;;2.20;1.90;;;;;;;19.03;57.31;101416.38;3555687;39;20055;-42
2021/06/09 06:06:16;;;;;;;3.03;1.90;;;;;;;19.17;55.91;101405.16;3549325;39;20082;-43
2021/06/09 06:08:44;;;;;;;2.65;2.10;;;;;;;19.49;56.75;101408.66;3553846;39;20525;-42
2021/06/09 06:11:15;;;;;;;3.15;1.90;;;;;;;19.37;55.11;101410.38;3548011;40;20114;-42
2021/06/09 06:13:47;;;;;;;2.25;1.95;;;;;;;19.59;53.19;101415.56;3553982;40;20046;-42
2021/06/09 06:16:16;;;;;;;2.33;1.83;;;;;;;19.87;55.73;101418.19;3551001;39;20061;-43
2021/06/09 06:18:46;;;;;;;2.83;1.70;;;;;;;20.24;55.34;101418.13;3551274;39;20136;-43
2021/06/09 06:21:19;;;;;;;3.78;1.70;;;;;;;20.04;54.69;101425.97;3542793;40;20379;-44
2021/06/09 06:23:47;;;;;;;4.03;2.20;;;;;;;20.36;53.65;101418.09;3547080;40;20090;-42
2021/06/09 06:26:17;;;;;;;2.45;1.83;;;;;;;20.21;52.31;101420.75;3548869;40;20071;-43
2021/06/09 06:28:45;;;;;;;2.85;1.70;;;;;;;20.47;52.11;101418.06;3552969;39;20065;-42
2021/06/09 06:31:16;;;;;;;1.75;1.63;;;;;;;20.44;50.34;101421.56;3550067;39;20089;-43
2021/06/09 06:33:45;;;;;;;3.50;1.73;;;;;;;20.44;49.83;101423.28;3554977;39;20051;-41
2021/06/09 06:36:14;;;;;;;1.52;1.42;;;;;;;20.59;48.61;101426.72;3548535;40;20094;-42
2021/06/09 06:38:49;;;;;;;1.60;1.33;;;;;;;20.55;49.81;101419.81;3551201;39;20098;-43
2021/06/09 06:41:23;;;;;;;3.08;1.73;;;;;;;20.52;49.15;101425.03;3540590;40;20050;-42
2021/06/09 06:43:51;;;;;;;2.10;1.52;;;;;;;20.94;50.61;101417.00;3549706;39;20067;-42
2021/06/09 06:46:22;;;;;;;3.30;1.88;;;;;;;20.98;52.11;101423.94;3548479;39;20058;-44
2021/06/09 06:48:52;;;;;;;4.50;1.60;;;;;;;21.18;51.79;101423.84;3550765;39;20146;-50
2021/06/09 06:51:22;;;;;;;2.40;1.67;;;;;;;21.53;49.77;101427.06;3549246;39;20151;-42
2021/06/09 06:53:54;;;;;;;1.85;1.63;;;;;;;21.42;50.14;101420.22;3556143;39;20047;-43
2021/06/09 06:56:24;;;;;;;3.45;1.88;;;;;;;21.20;51.97;101424.69;3548433;39;20424;-42
2021/06/09 06:58:53;;;;;;;2.95;2.13;;;;;;;21.46;49.56;101425.41;3549985;39;20055;-42
2021/06/09 07:01:23;;;;;;;3.13;1.92;;;;;;;21.67;48.09;101429.56;3550249;39;20054;-42
2021/06/09 07:03:51;;;;;;;1.55;1.45;;;;;;;21.80;48.62;101427.72;3555817;39;20055;-43
2021/06/09 07:06:19;;;;;;;2.85;1.55;;;;;;;22.03;46.16;101430.13;3545950;39;20069;-43
2021/06/09 07:08:49;;;;;;;2.45;1.52;;;;;;;22.05;45.42;101424.03;3555729;39;20071;-43
2021/06/09 07:11:21;;;;;;;3.88;1.70;;;;;;;22.23;45.18;101427.34;3548204;39;20059;-43
2021/06/09 07:13:50;;;;;;;3.72;1.92;;;;;;;22.57;44.27;101425.22;3557311;39;20051;-45
2021/06/09 07:16:21;;;;;;;3.22;1.95;;;;;;;22.48;44.68;101425.34;3548929;39;20058;-43
2021/06/09 07:18:50;;;;;;;1.40;1.30;;;;;;;22.85;43.21;101423.13;3555392;39;20064;-46
2021/06/09 07:21:20;;;;;;;3.75;1.65;;;;;;;22.99;44.34;101441.25;3548525;39;20058;-44
2021/06/09 07:23:48;;;;;;;2.55;1.65;;;;;;;23.18;42.51;101437.50;3555615;39;20305;-45
2021/06/09 07:26:18;;;;;;;3.08;1.58;;;;;;;23.35;41.76;101437.25;3548550;39;20051;-43
2021/06/09 07:28:52;;;;;;;3.22;1.58;;;;;;;23.46;40.28;101440.53;3554644;39;20280;-43
2021/06/09 07:31:25;;;;;;;3.78;1.50;;;;;;;23.62;41.67;101436.81;3548881;39;20052;-45
2021/06/09 07:33:53;;;;;;;1.52;1.42;;;;;;;23.17;40.16;101438.38;3549556;39;20052;-44
2021/06/09 07:36:24;;;;;;;2.63;1.10;;;;;;;23.74;38.28;101434.91;3548108;39;20168;-44
2021/06/09 07:38:58;;;;;;;2.33;1.50;;;;;;;23.87;38.95;101431.19;3551438;39;20052;-43
2021/06/09 07:41:29;;;;;;;1.42;1.30;;;;;;;24.00;39.54;101431.84;3548110;39;20152;-43
2021/06/09 07:43:57;;;;;;;4.30;1.88;;;;;;;24.12;39.44;101435.06;3548166;39;20079;-43
2021/06/09 07:46:28;;;;;;;1.40;1.30;;;;;;;24.17;38.81;101439.34;3548257;39;20066;-44
2021/06/09 07:48:57;;;;;;;2.20;1.70;;;;;;;24.49;38.75;101437.00;3544694;39;20376;-43
2021/06/09 07:51:25;;;;;;;3.20;1.58;;;;;;;24.59;39.53;101437.72;3547777;39;20069;-43
2021/06/09 07:53:57;;;;;;;3.17;1.40;;;;;;;24.85;38.63;101435.38;3543203;39;20061;-44
2021/06/09 07:56:34;;;;;;;2.10;1.30;;;;;;;24.77;38.74;101433.81;3541551;40;20042;-44
2021/06/09 07:59:05;;;;;;;1.75;1.30;;;;;;;24.93;37.35;101424.75;3540322;40;20072;-43
2021/06/09 08:01:35;;;;;;;2.47;1.70;;;;;;;25.49;36.83;101430.47;3549531;39;20073;-46
2021/06/09 08:04:03;;;;;;;2.00;1.30;;;;;;;24.92;36.83;101423.03;3551831;39;20056;-43
2021/06/09 08:06:31;;;;;;;1.80;1.20;;;;;;;25.60;37.32;101428.41;3551150;39;20420;-43
2021/06/09 08:08:58;;;;;;;2.33;1.23;;;;;;;25.93;34.50;101425.91;3548833;39;20076;-43
2021/06/09 08:11:25;;;;;;;2.92;1.00;;;;;;;25.93;35.05;101428.50;3548882;39;20061;-43
2021/06/09 08:13:53;;;;;;;1.10;1.00;;;;;;;25.97;34.64;101426.66;3549478;39;20080;-48
2021/06/09 08:16:20;;;;;;;2.17;1.17;;;;;;;26.05;35.33;101430.78;3544827;39;20055;-48
2021/06/09 08:18:48;;;;;;;2.55;1.15;;;;;;;25.29;34.37;101432.72;3546452;39;20064;-45
2021/06/09 08:21:19;;;;;;;1.20;1.05;;;;;;;25.99;33.44;101432.72;3546601;39;20059;-43
2021/06/09 08:23:49;;;;;;;1.70;1.10;;;;;;;25.88;34.84;101428.63;3553976;39;20050;-46
2021/06/09 08:26:19;;;;;;;0.98;0.98;;;;;;;25.65;35.98;101434.44;3545426;40;20061;-46
2021/06/09 08:28:47;;;;;;;2.72;1.30;;;;;;;25.76;34.35;101430.72;3557819;39;20091;-43
2021/06/09 08:31:18;;;;;;;1.55;1.20;;;;;;;25.80;37.16;101435.84;3551346;39;20090;-48
2021/06/09 08:33:47;;;;;;;1.33;1.08;;;;;;;26.78;35.12;101440.16;3556487;39;20136;-48
2021/06/09 08:36:14;;;;;;;2.17;1.60;;;;;;;26.23;35.28;101439.09;3548085;40;20409;-44
2021/06/09 08:38:44;;;;;;;2.97;1.45;;;;;;;25.64;35.28;101431.84;3554983;39;20086;-45
2021/06/09 08:41:13;;;;;;;2.42;1.30;;;;;;;25.40;36.24;101430.69;3550994;39;20042;-44
2021/06/09 08:43:43;;;;;;;1.33;1.23;;;;;;;25.01;36.32;101421.97;3554888;39;20319;-45
2021/06/09 08:46:11;;;;;;;2.75;1.38;;;;;;;24.92;36.59;101424.78;3550597;39;20070;-44
2021/06/09 08:48:41;;;;;;;1.95;1.10;;;;;;;24.84;37.38;101430.19;3555390;39;20402;-45
2021/06/09 08:51:10;;;;;;;4.40;1.50;;;;;;;24.96;37.41;101426.41;3550286;39;20082;-45
2021/06/09 08:53:45;;;;;;;2.00;1.45;;;;;;;24.28;37.88;101432.19;3553252;39;20050;-45
2021/06/09 08:56:13;;;;;;;1.45;1.35;;;;;;;24.39;37.94;101423.25;3549288;39;20360;-43
2021/06/09 08:58:41;;;;;;;2.33;1.40;;;;;;;25.03;37.48;101428.03;3547743;39;20083;-43
2021/06/09 09:01:10;;;;;;;3.70;1.30;;;;;;;24.86;36.61;101434.47;3552024;39;20070;-43
2021/06/09 09:03:41;;;;;;;2.20;1.80;;;;;;;25.18;37.72;101430.31;3546071;39;20055;-43
2021/06/09 09:06:08;;;;;;;1.80;1.27;;;;;;;25.18;38.28;101432.94;3547155;39;20271;-44
2021/06/09 09:08:35;;;;;;;1.50;1.40;;;;;;;24.66;37.36;101427.97;3552631;39;20099;-44
2021/06/09 09:11:03;;;;;;;2.20;1.45;;;;;;;24.94;37.60;101426.47;3553012;39;20056;-44
2021/06/09 09:13:34;;;;;;;5.25;1.40;;;;;;;24.83;37.10;101429.34;3549558;39;20210;-44
2021/06/09 09:16:02;;;;;;;1.73;1.52;;;;;;;25.56;37.08;101434.66;3541294;40;20042;-43
2021/06/09 09:18:44;;;;;;;2.03;1.30;;;;;;;24.76;37.46;101426.88;3541357;40;20046;-43
2021/06/09 09:21:13;;;;;;;2.53;1.83;;;;;;;24.08;37.69;101424.69;3547218;39;20086;-43
2021/06/09 09:23:50;;;;;;;1.20;1.10;;;;;;;25.03;37.56;101428.88;3554014;39;20046;-43
2021/06/09 09:26:23;;;;;;;2.00;1.40;;;;;;;24.69;37.96;101420.91;3544136;40;20119;-46
2021/06/09 09:28:50;;;;;;;3.05;1.65;;;;;;;24.73;37.81;101432.16;3554696;40;20451;-44
2021/06/09 09:31:19;;;;;;;2.53;1.50;;;;;;;25.13;37.65;101427.81;3550706;40;20439;-44
2021/06/09 09:33:47;;;;;;;2.25;1.38;;;;;;;26.45;36.00;101437.63;3555033;40;20133;-43
2021/06/09 09:36:28;;;;;;;2.83;1.42;;;;;;;26.90;33.95;101427.53;3550767;40;20057;-44
2021/06/09 09:38:58;;;;;;;1.73;1.10;;;;;;;27.49;33.88;101436.22;3549860;40;20048;-46
2021/06/09 09:41:32;;;;;;;4.30;1.30;;;;;;;27.15;32.77;101438.16;3547118;39;20357;-43
2021/06/09 09:44:08;;;;;;;1.57;1.10;;;;;;;25.95;33.89;101429.31;3550774;39;20062;-46
2021/06/09 09:46:56;;;;;;;3.00;1.30;;;;;;;26.95;32.46;101435.28;3550114;40;20094;-46
2021/06/09 09:49:24;;;;;;;3.70;1.42;;;;;;;27.66;32.25;101436.53;3549257;39;20066;-44
2021/06/09 09:51:53;;;;;;;1.98;1.38;;;;;;;27.84;32.51;101425.41;3547529;39;20490;-44
2021/06/09 09:54:28;;;;;;;4.28;1.50;;;;;;;26.98;32.98;101431.66;3548006;40;20039;-44
2021/06/09 09:56:56;;;;;;;2.33;1.40;;;;;;;26.59;33.95;101426.72;3550059;39;20066;-46
2021/06/09 09:59:25;;;;;;;5.25;1.25;;;;;;;27.68;35.05;101427.63;3546224;40;20137;-44
2021/06/09 10:01:54;;;;;;;2.45;1.55;;;;;;;28.56;32.34;101427.22;3549243;39;20178;-43
2021/06/09 10:04:29;;;;;;;5.28;1.60;;;;;;;27.97;31.78;101432.88;3551751;39;20430;-45
2021/06/09 10:06:57;;;;;;;1.80;1.45;;;;;;;27.58;32.56;101433.28;3550129;39;20047;-43
2021/06/09 10:09:35;;;;;;;2.25;1.10;;;;;;;29.80;29.80;101440.78;3548501;39;20113;-46
2021/06/09 10:12:08;;;;;;;3.08;1.40;;;;;;;32.14;24.91;101442.94;3549821;39;20100;-48
2021/06/09 10:14:40;;;;;;;4.15;1.65;;;;;;;32.06;26.13;101440.69;3552282;39;20065;-51
2021/06/09 10:17:26;;;;;;;2.03;1.20;;;;;;;33.89;23.13;101442.84;3550772;39;20400;-44
2021/06/09 10:19:59;;;;;;;1.27;0.90;;;;;;;32.65;23.85;101436.66;3549023;39;20047;-44
2021/06/09 10:22:36;;;;;;;3.22;1.13;;;;;;;31.86;24.19;101425.00;3549145;40;20232;-45
2021/06/09 10:25:12;;;;;;;2.25;0.93;;;;;;;35.17;22.84;101449.88;3549634;39;20422;-44
2021/06/09 10:27:48;;;;;;;2.60;1.13;;;;;;;36.93;20.26;101448.41;3553853;39;20077;-45
2021/06/09 10:30:17;;;;;;;3.75;1.08;;;;;;;38.67;19.83;101452.81;3550123;39;20422;-45
2021/06/09 10:32:58;;;;;;;1.67;1.30;;;;;;;36.34;19.04;101439.31;3551666;39;20118;-44
2021/06/09 10:35:28;;;;;;;1.83;1.33;;;;;;;35.59;20.19;101437.38;3540925;39;20342;-47
2021/06/09 10:37:56;;;;;;;2.05;1.20;;;;;;;34.78;22.13;101434.69;3550278;39;20084;-50
2021/06/09 10:40:27;;;;;;;1.23;1.20;;;;;;;35.86;19.65;101439.09;3548611;39;20055;-45
2021/06/09 10:42:57;;;;;;;2.55;1.45;;;;;;;36.64;18.92;101425.59;3549458;39;20044;-51
2021/06/09 10:45:24;;;;;;;1.08;1.00;;;;;;;34.01;22.02;101416.47;3547989;39;20318;-45
2021/06/09 10:47:56;;;;;;;1.10;1.10;;;;;;;37.36;18.59;101426.50;3555995;39;20083;-45
2021/06/09 10:50:24;;;;;;;1.23;1.10;;;;;;;37.94;18.58;101422.03;3548481;39;20099;-45
2021/06/09 10:52:52;;;;;;;1.42;1.33;;;;;;;36.29;20.40;101415.63;3556089;39;20081;-50
2021/06/09 10:55:21;;;;;;;1.38;1.27;;;;;;;38.54;18.62;101429.84;3548502;39;20058;-47
2021/06/09 10:57:49;;;;;;;3.13;0.95;;;;;;;39.34;18.00;101424.16;3563553;39;20123;-46
2021/06/09 11:00:18;;;;;;;2.38;1.10;;;;;;;41.65;15.93;101433.94;3548665;39;20090;-45
2021/06/09 11:02:47;;;;;;;1.20;1.10;;;;;;;40.89;16.42;101425.72;3555741;39;20055;-48
2021/06/09 11:05:16;;;;;;;2.30;1.20;;;;;;;40.75;16.37;101422.59;3548929;39;20066;-46
2021/06/09 11:07:46;;;;;;;4.57;1.33;;;;;;;39.29;17.74;101424.56;3555408;39;20107;-48
2021/06/09 11:10:39;;;;;;;3.50;1.33;;;;;;;37.51;19.99;101413.81;3548249;39;20046;-49
2021/06/09 11:13:07;;;;;;;1.85;1.20;;;;;;;35.80;19.87;101404.84;3548885;39;20065;-49
2021/06/09 11:15:34;;;;;;;4.30;1.35;;;;;;;36.66;18.79;101395.19;3549121;39;20078;-48
2021/06/09 11:18:16;;;;;;;1.55;1.20;;;;;;;40.96;15.89;101410.78;3552205;39;20054;-50
2021/06/09 11:20:47;;;;;;;4.30;1.10;;;;;;;42.55;14.08;101405.53;3555151;39;20061;-50
2021/06/09 11:23:29;;;;;;;4.78;1.30;;;;;;;38.45;16.44;101394.78;3549943;39;20106;-47
2021/06/09 11:25:56;;;;;;;1.77;1.30;;;;;;;37.61;18.63;101385.38;3549120;39;20056;-49
2021/06/09 11:28:26;;;;;;;2.05;1.20;;;;;;;34.46;20.59;101378.22;3550147;39;20099;-50
2021/06/09 11:31:00;;;;;;;1.77;1.27;;;;;;;36.32;19.71;101380.72;3548765;39;20088;-47
2021/06/09 11:33:44;;;;;;;1.25;1.15;;;;;;;39.52;17.62;101387.75;3548521;39;20058;-51
2021/06/09 11:36:19;;;;;;;3.97;1.35;;;;;;;38.64;16.65;101391.50;3542626;39;20050;-51
2021/06/09 11:39:01;;;;;;;3.78;1.38;;;;;;;40.47;14.93;101388.31;3548117;39;20070;-50
2021/06/09 11:41:43;;;;;;;1.50;1.40;;;;;;;37.69;18.52;101369.59;3550598;39;20062;-48